Time;durP1;ratioP1;P1;durP2;ratioP2;P2;SDS_P1;SDS_P2;PMS_P1;PMS_P2;Temp;Humidity;BMP_temperature;BMP_pressure;BME280_temperature;BME280_humidity;BME280_pressure;Samples;Min_cycle;Max_cycle;Signal;HPM_P1;HPM_P2
2022/04/12 00:00:41;;;;;;;19.67;10.32;;;;;;;;;;5054323;28;20039;-38
2022/04/12 00:03:08;;;;;;;20.95;11.45;;;;;;;;;;5054291;28;20028;-36
2022/04/12 00:05:35;;;;;;;23.95;10.70;;;;;;;;;;5054195;28;20024;-36
2022/04/12 00:08:01;;;;;;;21.67;9.07;;;;;;;;;;5054077;28;20020;-37
2022/04/12 00:10:28;;;;;;;20.67;10.25;;;;;;;;;;5054163;28;20029;-38
2022/04/12 00:12:55;;;;;;;21.40;10.60;;;;;;;;;;5054110;28;20017;-36
2022/04/12 00:15:21;;;;;;;21.50;10.65;;;;;;;;;;5053937;28;20029;-37
2022/04/12 00:20:32;;;;;;;20.02;9.82;;;;;;;;;;5054019;28;20056;-37
2022/04/12 00:22:59;;;;;;;19.23;8.88;;;;;;;;;;5054140;28;20049;-37
2022/04/12 00:25:28;;;;;;;18.10;9.23;;;;;;;;;;5053885;28;20071;-37
2022/04/12 00:27:57;;;;;;;18.75;9.80;;;;;;;;;;5053554;28;20029;-38
2022/04/12 00:30:24;;;;;;;18.65;9.55;;;;;;;;;;5053701;28;20064;-48
2022/04/12 00:32:52;;;;;;;25.30;9.60;;;;;;;;;;5053799;28;20469;-40
2022/04/12 00:35:18;;;;;;;18.98;9.68;;;;;;;;;;5053683;28;20036;-43
2022/04/12 00:37:44;;;;;;;18.48;8.77;;;;;;;;;;5052253;28;20029;-36
2022/04/12 00:40:11;;;;;;;20.17;9.95;;;;;;;;;;5053549;28;20024;-38
2022/04/12 00:42:37;;;;;;;24.20;9.80;;;;;;;;;;5053718;28;20029;-39
2022/04/12 00:45:04;;;;;;;27.80;10.32;;;;;;;;;;5053547;28;20512;-49
2022/04/12 00:47:30;;;;;;;26.92;11.10;;;;;;;;;;5053502;28;20464;-38
2022/04/12 00:49:56;;;;;;;30.50;12.43;;;;;;;;;;5053683;28;20025;-37
2022/04/12 00:52:24;;;;;;;25.42;12.68;;;;;;;;;;5052889;28;20057;-43
2022/04/12 00:54:53;;;;;;;29.60;13.88;;;;;;;;;;5053428;28;20028;-38
2022/04/12 00:57:20;;;;;;;27.20;13.00;;;;;;;;;;5053412;28;20531;-38
2022/04/12 00:59:46;;;;;;;27.08;12.73;;;;;;;;;;5053144;28;20389;-38
2022/04/12 01:02:13;;;;;;;33.72;15.02;;;;;;;;;;5053295;28;20529;-42
2022/04/12 01:04:39;;;;;;;40.80;18.05;;;;;;;;;;5053371;28;20036;-37
2022/04/12 01:07:06;;;;;;;38.63;15.75;;;;;;;;;;5053261;28;20389;-39
2022/04/12 01:09:32;;;;;;;31.92;14.70;;;;;;;;;;5053325;28;20025;-37
2022/04/12 01:11:58;;;;;;;27.27;12.45;;;;;;;;;;5053074;28;20022;-38
2022/04/12 01:14:25;;;;;;;29.63;14.52;;;;;;;;;;5053155;28;20036;-43
2022/04/12 01:16:51;;;;;;;33.10;14.82;;;;;;;;;;5053350;28;20025;-38
2022/04/12 01:19:18;;;;;;;31.25;14.32;;;;;;;;;;5053004;28;20457;-38
2022/04/12 01:21:46;;;;;;;25.55;13.82;;;;;;;;;;5053127;28;20061;-37
2022/04/12 01:24:15;;;;;;;27.92;13.32;;;;;;;;;;5053255;28;20151;-38
2022/04/12 01:26:42;;;;;;;24.45;12.30;;;;;;;;;;5052908;28;20036;-38
2022/04/12 01:29:08;;;;;;;28.08;12.20;;;;;;;;;;5051669;28;20413;-37
2022/04/12 01:31:34;;;;;;;26.83;12.73;;;;;;;;;;5053222;28;20029;-38
2022/04/12 01:34:00;;;;;;;20.60;11.38;;;;;;;;;;5052912;28;20049;-40
2022/04/12 01:36:26;;;;;;;23.27;12.02;;;;;;;;;;5052842;28;20033;-39
2022/04/12 01:38:52;;;;;;;25.08;11.98;;;;;;;;;;5052912;28;20028;-36
2022/04/12 01:41:18;;;;;;;23.20;12.02;;;;;;;;;;5053082;28;20056;-36
2022/04/12 01:43:44;;;;;;;21.98;11.45;;;;;;;;;;5052834;28;20021;-36
2022/04/12 01:46:10;;;;;;;20.23;10.77;;;;;;;;;;5053081;28;20030;-38
2022/04/12 01:48:36;;;;;;;17.50;10.00;;;;;;;;;;5052589;28;20063;-37
2022/04/12 01:51:05;;;;;;;27.33;11.05;;;;;;;;;;5052017;28;20061;-38
2022/04/12 01:53:31;;;;;;;28.52;11.15;;;;;;;;;;5052924;28;20104;-40
2022/04/12 01:55:57;;;;;;;24.92;12.07;;;;;;;;;;5052889;28;20485;-38
2022/04/12 01:58:23;;;;;;;25.30;12.90;;;;;;;;;;5052574;28;20032;-38
2022/04/12 02:00:49;;;;;;;24.50;11.57;;;;;;;;;;5052923;28;20120;-39
2022/04/12 02:03:17;;;;;;;28.65;13.43;;;;;;;;;;5053532;28;20477;-38
2022/04/12 02:05:44;;;;;;;21.98;12.80;;;;;;;;;;5056524;28;20040;-40
2022/04/12 02:08:10;;;;;;;29.13;14.65;;;;;;;;;;5056378;28;20473;-38
2022/04/12 02:10:36;;;;;;;30.10;15.15;;;;;;;;;;5056368;28;20392;-38
2022/04/12 02:13:02;;;;;;;27.55;15.32;;;;;;;;;;5056416;28;20017;-51
2022/04/12 02:15:28;;;;;;;32.58;16.52;;;;;;;;;;5056506;28;20057;-38
2022/04/12 02:17:54;;;;;;;27.73;14.77;;;;;;;;;;5056329;28;20115;-38
2022/04/12 02:20:20;;;;;;;35.17;15.80;;;;;;;;;;5056175;28;20025;-37
2022/04/12 02:22:46;;;;;;;38.90;19.75;;;;;;;;;;5056227;28;20033;-38
2022/04/12 02:25:12;;;;;;;30.13;15.30;;;;;;;;;;5056628;28;20024;-36
2022/04/12 02:27:38;;;;;;;35.22;14.75;;;;;;;;;;5056010;28;20025;-38
2022/04/12 02:30:06;;;;;;;38.22;17.08;;;;;;;;;;5055931;28;20047;-42
2022/04/12 02:32:34;;;;;;;29.27;14.88;;;;;;;;;;5056037;28;20040;-38
2022/04/12 02:35:00;;;;;;;37.80;15.95;;;;;;;;;;5054546;28;20425;-38
2022/04/12 02:37:29;;;;;;;33.17;15.02;;;;;;;;;;5056029;28;20025;-37
2022/04/12 02:39:55;;;;;;;36.33;17.00;;;;;;;;;;5055837;28;20032;-43
2022/04/12 02:42:21;;;;;;;42.97;19.35;;;;;;;;;;5055792;28;20025;-39
2022/04/12 02:44:48;;;;;;;52.97;22.77;;;;;;;;;;5055684;28;20031;-37
2022/04/12 02:47:14;;;;;;;66.97;27.90;;;;;;;;;;5055795;28;20028;-37
2022/04/12 02:49:40;;;;;;;58.72;24.27;;;;;;;;;;5055721;28;20037;-38
2022/04/12 02:52:08;;;;;;;53.80;22.38;;;;;;;;;;5055718;28;20032;-40
2022/04/12 02:54:34;;;;;;;60.97;24.40;;;;;;;;;;5055554;28;20078;-37
2022/04/12 02:57:00;;;;;;;51.10;20.88;;;;;;;;;;5055314;28;20505;-39
2022/04/12 02:59:26;;;;;;;44.42;20.80;;;;;;;;;;5055341;28;20029;-39
2022/04/12 03:01:52;;;;;;;53.22;21.85;;;;;;;;;;5055353;28;20025;-38
2022/04/12 03:04:18;;;;;;;53.13;19.75;;;;;;;;;;5055484;28;20080;-38
2022/04/12 03:06:45;;;;;;;46.78;20.40;;;;;;;;;;5055490;28;20117;-38
2022/04/12 03:09:11;;;;;;;44.15;20.25;;;;;;;;;;5055356;28;20032;-37
2022/04/12 03:11:39;;;;;;;63.45;25.08;;;;;;;;;;5055402;28;20100;-40
2022/04/12 03:14:05;;;;;;;45.72;19.55;;;;;;;;;;5055164;28;20025;-39
2022/04/12 03:16:31;;;;;;;57.45;24.92;;;;;;;;;;5054610;28;20094;-40
2022/04/12 03:18:57;;;;;;;48.53;21.13;;;;;;;;;;5055183;28;20475;-39
2022/04/12 03:21:23;;;;;;;52.08;22.65;;;;;;;;;;5055258;28;20087;-38
2022/04/12 03:23:49;;;;;;;55.22;22.15;;;;;;;;;;5055148;28;20021;-40
2022/04/12 03:26:15;;;;;;;51.42;22.30;;;;;;;;;;5054964;28;20025;-40
2022/04/12 03:28:41;;;;;;;49.50;21.35;;;;;;;;;;5054903;28;20523;-37
2022/04/12 03:31:07;;;;;;;46.10;20.42;;;;;;;;;;5055104;28;20033;-45
2022/04/12 03:33:33;;;;;;;53.13;23.15;;;;;;;;;;5054796;28;20052;-39
2022/04/12 03:35:59;;;;;;;41.88;20.42;;;;;;;;;;5055079;28;20389;-41
2022/04/12 03:38:28;;;;;;;46.08;19.00;;;;;;;;;;5054924;28;20017;-47
2022/04/12 03:40:58;;;;;;;42.55;19.42;;;;;;;;;;5053710;28;20032;-45
2022/04/12 03:43:24;;;;;;;52.42;23.17;;;;;;;;;;5054698;28;20021;-38
2022/04/12 03:45:50;;;;;;;51.95;22.95;;;;;;;;;;5054763;28;20438;-38
2022/04/12 03:48:16;;;;;;;40.47;20.50;;;;;;;;;;5054305;28;20114;-37
2022/04/12 03:50:44;;;;;;;38.08;18.40;;;;;;;;;;5054614;28;20434;-38
2022/04/12 03:53:10;;;;;;;47.92;24.73;;;;;;;;;;5054377;28;20477;-40
2022/04/12 03:55:39;;;;;;;75.05;31.73;;;;;;;;;;5054471;28;20469;-39
2022/04/12 03:58:06;;;;;;;50.53;21.10;;;;;;;;;;5054157;28;20503;-44
2022/04/12 04:00:33;;;;;;;47.15;21.10;;;;;;;;;;5054260;28;20477;-45
2022/04/12 04:02:59;;;;;;;41.25;19.80;;;;;;;;;;5054134;28;20028;-36
2022/04/12 04:05:26;;;;;;;44.22;20.08;;;;;;;;;;5054366;28;20108;-47
2022/04/12 04:07:52;;;;;;;36.08;17.80;;;;;;;;;;5054183;28;20028;-46
2022/04/12 04:10:18;;;;;;;47.38;21.98;;;;;;;;;;5054113;28;20501;-38
2022/04/12 04:12:44;;;;;;;44.15;20.25;;;;;;;;;;5054061;28;20476;-42
2022/04/12 04:15:12;;;;;;;40.10;20.92;;;;;;;;;;5054265;28;20079;-38
2022/04/12 04:17:56;;;;;;;50.17;21.90;;;;;;;;;;5053993;28;20402;-38
2022/04/12 04:20:22;;;;;;;45.50;21.90;;;;;;;;;;5052937;28;20396;-38
2022/04/12 04:22:48;;;;;;;47.33;21.42;;;;;;;;;;5054185;28;20086;-38
2022/04/12 04:25:15;;;;;;;40.58;21.50;;;;;;;;;;5053686;28;20052;-37
2022/04/12 04:27:42;;;;;;;47.80;20.83;;;;;;;;;;5053053;28;20024;-39
2022/04/12 04:30:09;;;;;;;48.97;23.40;;;;;;;;;;5054004;28;20443;-38
2022/04/12 04:32:36;;;;;;;47.67;21.85;;;;;;;;;;5053896;28;20032;-37
2022/04/12 04:35:05;;;;;;;48.15;23.48;;;;;;;;;;5053620;28;20056;-38
2022/04/12 04:37:31;;;;;;;49.47;25.83;;;;;;;;;;5053581;28;20029;-40
2022/04/12 04:39:57;;;;;;;48.40;23.85;;;;;;;;;;5054132;28;20021;-38
2022/04/12 04:42:23;;;;;;;44.78;21.58;;;;;;;;;;5053581;28;20031;-37
2022/04/12 04:44:50;;;;;;;50.80;22.20;;;;;;;;;;5053647;28;20021;-36
2022/04/12 04:47:16;;;;;;;42.13;19.45;;;;;;;;;;5053445;28;20017;-39
2022/04/12 04:49:42;;;;;;;43.42;21.08;;;;;;;;;;5053622;28;20037;-37
2022/04/12 04:52:08;;;;;;;41.30;19.40;;;;;;;;;;5053740;28;20029;-38
2022/04/12 04:54:34;;;;;;;42.70;19.90;;;;;;;;;;5053322;28;20469;-39
2022/04/12 04:57:01;;;;;;;40.53;18.30;;;;;;;;;;5053242;28;20120;-37
2022/04/12 04:59:27;;;;;;;40.88;19.55;;;;;;;;;;5053555;28;20425;-36
2022/04/12 05:01:53;;;;;;;39.33;19.08;;;;;;;;;;5053418;28;20112;-37
2022/04/12 05:04:19;;;;;;;41.95;20.15;;;;;;;;;;5053386;28;20036;-37
2022/04/12 05:06:45;;;;;;;38.90;18.08;;;;;;;;;;5053334;28;20104;-37
2022/04/12 05:09:11;;;;;;;44.75;19.83;;;;;;;;;;5053288;28;20420;-37
2022/04/12 05:11:37;;;;;;;40.20;20.27;;;;;;;;;;5053218;28;20021;-38
2022/04/12 05:14:03;;;;;;;41.72;18.98;;;;;;;;;;5053368;28;20436;-37
2022/04/12 05:16:36;;;;;;;32.67;18.20;;;;;;;;;;5053041;28;20033;-37
2022/04/12 05:19:02;;;;;;;31.33;16.10;;;;;;;;;;5052069;28;20389;-39
2022/04/12 05:21:28;;;;;;;27.38;14.30;;;;;;;;;;5053129;28;20033;-38
2022/04/12 05:23:54;;;;;;;29.55;13.75;;;;;;;;;;5053200;28;20017;-38
2022/04/12 05:26:20;;;;;;;29.55;14.63;;;;;;;;;;5052833;28;20033;-38
2022/04/12 05:28:46;;;;;;;40.22;20.02;;;;;;;;;;5053137;28;20025;-38
2022/04/12 05:31:12;;;;;;;52.47;23.17;;;;;;;;;;5052994;28;20385;-37
2022/04/12 05:33:41;;;;;;;24.63;14.57;;;;;;;;;;5052881;28;20543;-38
2022/04/12 05:36:11;;;;;;;35.85;18.02;;;;;;;;;;5053154;28;20120;-38
2022/04/12 05:38:38;;;;;;;32.42;17.83;;;;;;;;;;5054509;28;20039;-39
2022/04/12 05:41:06;;;;;;;32.42;17.35;;;;;;;;;;5056860;28;20025;-36
2022/04/12 05:43:32;;;;;;;41.58;18.95;;;;;;;;;;5056815;28;20017;-38
2022/04/12 05:45:58;;;;;;;31.65;16.52;;;;;;;;;;5056959;28;20442;-37
2022/04/12 05:48:24;;;;;;;24.77;14.10;;;;;;;;;;5056575;28;20055;-42
2022/04/12 05:50:50;;;;;;;28.63;13.70;;;;;;;;;;5056741;28;20108;-37
2022/04/12 05:53:16;;;;;;;21.25;12.43;;;;;;;;;;5056706;28;20033;-37
2022/04/12 05:55:42;;;;;;;25.67;12.02;;;;;;;;;;5056580;28;20366;-37
2022/04/12 05:58:08;;;;;;;22.02;10.13;;;;;;;;;;5056792;28;20040;-38
2022/04/12 06:00:35;;;;;;;16.73;8.50;;;;;;;;;;5056540;28;20518;-38
2022/04/12 06:03:02;;;;;;;16.00;9.38;;;;;;;;;;5056570;28;20068;-38
2022/04/12 06:05:30;;;;;;;18.75;10.73;;;;;;;;;;5056400;28;20473;-38
2022/04/12 06:07:56;;;;;;;22.35;12.25;;;;;;;;;;5056469;28;20028;-38
2022/04/12 06:10:23;;;;;;;15.45;8.88;;;;;;;;;;5056315;28;20541;-38
2022/04/12 06:12:51;;;;;;;19.05;8.68;;;;;;;;;;5056597;28;20029;-39
2022/04/12 06:15:18;;;;;;;11.38;6.50;;;;;;;;;;5056135;28;20029;-38
2022/04/12 06:17:44;;;;;;;11.10;5.40;;;;;;;;;;5056340;28;20029;-39
2022/04/12 06:20:12;;;;;;;15.80;7.47;;;;;;;;;;5056146;28;20100;-38
2022/04/12 06:22:38;;;;;;;17.35;8.50;;;;;;;;;;5056231;28;20052;-48
2022/04/12 06:25:05;;;;;;;15.73;7.78;;;;;;;;;;5056055;28;20028;-37
2022/04/12 06:27:31;;;;;;;12.27;6.57;;;;;;;;;;5056219;28;20041;-42
2022/04/12 06:29:57;;;;;;;10.82;6.25;;;;;;;;;;5056255;28;20029;-45
2022/04/12 06:32:24;;;;;;;12.68;6.07;;;;;;;;;;5056205;28;20087;-38
2022/04/12 06:34:50;;;;;;;14.25;6.18;;;;;;;;;;5055941;28;20025;-38
2022/04/12 06:37:16;;;;;;;10.75;5.65;;;;;;;;;;5055920;28;20033;-39
2022/04/12 06:39:42;;;;;;;10.73;6.47;;;;;;;;;;5055720;28;20032;-40
2022/04/12 06:42:08;;;;;;;11.13;6.10;;;;;;;;;;5055757;28;20052;-41
2022/04/12 06:44:37;;;;;;;8.27;5.10;;;;;;;;;;5055793;28;20481;-41
2022/04/12 06:47:03;;;;;;;7.85;5.20;;;;;;;;;;5055888;28;20032;-39
2022/04/12 06:49:29;;;;;;;7.10;4.53;;;;;;;;;;5054957;28;20663;-39
2022/04/12 06:51:55;;;;;;;6.60;4.10;;;;;;;;;;5055236;28;20107;-39
2022/04/12 06:54:21;;;;;;;5.70;3.70;;;;;;;;;;5055746;28;20100;-43
2022/04/12 06:56:50;;;;;;;6.35;3.53;;;;;;;;;;5055392;28;20037;-39
2022/04/12 06:59:18;;;;;;;7.75;4.85;;;;;;;;;;5055332;28;20025;-44
2022/04/12 07:01:47;;;;;;;16.48;8.20;;;;;;;;;;5055595;28;20470;-45
2022/04/12 07:04:13;;;;;;;16.77;10.43;;;;;;;;;;5055335;28;20556;-44
2022/04/12 07:06:39;;;;;;;11.98;6.18;;;;;;;;;;5055462;28;20048;-40
2022/04/12 07:09:05;;;;;;;6.45;4.13;;;;;;;;;;5055155;28;20032;-49
2022/04/12 07:11:34;;;;;;;14.65;7.90;;;;;;;;;;5055168;28;20036;-42
2022/04/12 07:14:00;;;;;;;7.55;4.32;;;;;;;;;;5055214;28;20554;-41
2022/04/12 07:16:26;;;;;;;13.18;7.32;;;;;;;;;;5055199;28;20128;-48
2022/04/12 07:18:52;;;;;;;10.48;6.25;;;;;;;;;;5036805;28;20037;-38
2022/04/12 07:21:21;;;;;;;11.57;4.90;;;;;;;;;;5054999;28;20124;-46
2022/04/12 07:23:50;;;;;;;16.90;8.00;;;;;;;;;;5054965;28;20162;-42
2022/04/12 07:26:16;;;;;;;15.27;8.75;;;;;;;;;;5054980;28;20355;-41
2022/04/12 07:28:42;;;;;;;27.85;10.90;;;;;;;;;;5054836;28;20033;-39
2022/04/12 07:31:08;;;;;;;4.63;3.40;;;;;;;;;;5054805;28;20033;-47
2022/04/12 07:33:34;;;;;;;7.25;3.47;;;;;;;;;;5055018;28;20461;-39
2022/04/12 07:36:01;;;;;;;6.47;3.90;;;;;;;;;;5054665;28;20098;-49
2022/04/12 07:38:27;;;;;;;8.02;3.10;;;;;;;;;;5054809;28;20465;-39
2022/04/12 07:40:53;;;;;;;8.00;3.47;;;;;;;;;;5054536;28;20032;-44
2022/04/12 07:43:20;;;;;;;9.32;5.15;;;;;;;;;;5054658;28;20049;-40
2022/04/12 07:45:46;;;;;;;9.23;4.70;;;;;;;;;;5054490;28;20564;-39
2022/04/12 07:48:12;;;;;;;9.13;5.45;;;;;;;;;;5054513;28;20045;-39
2022/04/12 07:50:39;;;;;;;15.65;8.20;;;;;;;;;;5054417;28;20033;-38
2022/04/12 07:53:05;;;;;;;7.10;3.55;;;;;;;;;;5054560;28;20025;-39
2022/04/12 07:55:31;;;;;;;7.10;3.88;;;;;;;;;;5054341;28;20064;-38
2022/04/12 07:57:58;;;;;;;4.85;2.97;;;;;;;;;;5054335;28;20103;-39
2022/04/12 08:00:24;;;;;;;13.55;4.60;;;;;;;;;;5054156;28;20029;-39
2022/04/12 08:02:50;;;;;;;5.32;2.50;;;;;;;;;;5054104;28;20185;-39
2022/04/12 08:05:19;;;;;;;6.72;3.33;;;;;;;;;;5054155;28;20388;-39
2022/04/12 08:07:48;;;;;;;9.63;4.43;;;;;;;;;;5054134;28;20036;-40
2022/04/12 08:10:17;;;;;;;6.68;3.63;;;;;;;;;;5054044;28;20072;-39
2022/04/12 08:12:43;;;;;;;4.97;2.83;;;;;;;;;;5054033;28;20032;-43
2022/04/12 08:15:10;;;;;;;8.43;2.85;;;;;;;;;;5053960;28;20024;-40
2022/04/12 08:17:36;;;;;;;4.35;2.15;;;;;;;;;;5054166;28;20096;-39
2022/04/12 08:20:03;;;;;;;6.57;2.50;;;;;;;;;;5053791;28;20532;-48
2022/04/12 08:22:29;;;;;;;6.38;3.65;;;;;;;;;;5053972;28;20029;-40
2022/04/12 08:24:58;;;;;;;6.30;2.78;;;;;;;;;;5053810;28;20032;-41
2022/04/12 08:27:24;;;;;;;10.10;4.07;;;;;;;;;;5054113;28;20517;-45
2022/04/12 08:29:50;;;;;;;6.10;2.78;;;;;;;;;;5053909;28;20033;-38
2022/04/12 08:32:17;;;;;;;6.45;2.92;;;;;;;;;;5053964;28;20112;-49
2022/04/12 08:34:43;;;;;;;3.85;2.13;;;;;;;;;;5053723;28;20027;-42
2022/04/12 08:37:10;;;;;;;5.00;2.30;;;;;;;;;;5053528;28;20112;-46
2022/04/12 08:39:36;;;;;;;9.32;2.75;;;;;;;;;;5053747;28;20013;-39
2022/04/12 08:42:03;;;;;;;4.25;2.10;;;;;;;;;;5053748;28;20096;-38
2022/04/12 08:44:30;;;;;;;2.95;2.17;;;;;;;;;;5053784;28;20048;-42
2022/04/12 08:46:57;;;;;;;9.23;5.68;;;;;;;;;;5053416;28;20373;-39
2022/04/12 08:49:27;;;;;;;8.75;4.68;;;;;;;;;;5053291;28;20069;-41
2022/04/12 08:51:53;;;;;;;5.68;2.50;;;;;;;;;;5053492;28;20021;-43
2022/04/12 08:54:23;;;;;;;8.45;3.47;;;;;;;;;;5053537;28;20021;-40
2022/04/12 08:56:49;;;;;;;8.65;3.05;;;;;;;;;;5053562;28;20082;-45
2022/04/12 08:59:16;;;;;;;4.40;2.45;;;;;;;;;;5053321;28;20029;-39
2022/04/12 09:01:43;;;;;;;5.85;2.60;;;;;;;;;;5053418;28;20032;-41
2022/04/12 09:04:09;;;;;;;4.47;2.70;;;;;;;;;;5053126;28;20021;-44
2022/04/12 09:06:36;;;;;;;5.30;3.00;;;;;;;;;;5053189;28;20028;-39
2022/04/12 09:09:12;;;;;;;7.82;3.38;;;;;;;;;;5053239;28;20326;-39
2022/04/12 09:11:42;;;;;;;7.70;3.35;;;;;;;;;;5053273;28;20116;-43
2022/04/12 09:14:12;;;;;;;7.18;2.55;;;;;;;;;;5052920;28;20461;-41
2022/04/12 09:16:42;;;;;;;6.30;2.30;;;;;;;;;;5053021;28;20523;-51
2022/04/12 09:19:08;;;;;;;5.75;3.33;;;;;;;;;;5053251;28;20032;-51
2022/04/12 09:21:34;;;;;;;5.18;2.72;;;;;;;;;;5053198;28;20021;-41
2022/04/12 09:24:02;;;;;;;3.67;2.13;;;;;;;;;;5053127;28;20021;-42
2022/04/12 09:26:33;;;;;;;2.88;2.25;;;;;;;;;;5053249;28;20511;-46
2022/04/12 09:29:00;;;;;;;9.05;2.95;;;;;;;;;;5053055;28;20064;-42
2022/04/12 09:31:27;;;;;;;5.80;2.28;;;;;;;;;;5053210;28;20025;-49
2022/04/12 09:33:53;;;;;;;4.78;2.40;;;;;;;;;;5053293;28;20044;-40
2022/04/12 09:36:20;;;;;;;5.43;2.03;;;;;;;;;;5053280;28;20078;-43
2022/04/12 09:38:47;;;;;;;5.72;1.95;;;;;;;;;;5053345;28;20028;-39
2022/04/12 09:41:18;;;;;;;5.72;2.20;;;;;;;;;;5053391;28;20021;-41
2022/04/12 09:43:44;;;;;;;;;;;;;;;;;;5053361;28;20033;-36
2022/04/12 09:46:14;;;;;;;6.07;2.28;;;;;;;;;;5053082;28;19916;-48
2022/04/12 09:48:45;;;;;;;6.55;2.15;;;;;;;;;;5052684;28;20048;-39
2022/04/12 09:51:12;;;;;;;3.45;1.98;;;;;;;;;;5051532;28;20060;-42
2022/04/12 09:53:39;;;;;;;6.68;3.03;;;;;;;;;;5052816;28;20033;-39
2022/04/12 09:56:31;;;;;;;5.30;2.10;;;;;;;;;;5052895;28;20043;-39
2022/04/12 09:58:59;;;;;;;3.22;1.90;;;;;;;;;;5051065;28;20086;-54
2022/04/12 10:01:26;;;;;;;4.28;1.90;;;;;;;;;;5052778;28;20025;-50
2022/04/12 10:03:56;;;;;;;8.02;3.72;;;;;;;;;;5053176;28;20428;-47
2022/04/12 10:06:24;;;;;;;6.88;3.40;;;;;;;;;;5052794;28;20025;-51
2022/04/12 10:08:54;;;;;;;11.20;5.13;;;;;;;;;;5052866;28;20034;-46
2022/04/12 10:11:20;;;;;;;9.10;4.47;;;;;;;;;;5052787;28;20385;-42
2022/04/12 10:13:47;;;;;;;5.18;2.30;;;;;;;;;;5052866;28;20056;-54
2022/04/12 10:16:17;;;;;;;6.40;3.92;;;;;;;;;;5052381;28;20033;-54
2022/04/12 10:18:44;;;;;;;4.70;1.90;;;;;;;;;;5052627;28;20108;-39
2022/04/12 10:21:15;;;;;;;12.52;6.28;;;;;;;;;;5052661;28;20033;-52
2022/04/12 10:23:43;;;;;;;17.75;9.73;;;;;;;;;;5051513;28;20385;-54
2022/04/12 10:26:10;;;;;;;14.32;5.70;;;;;;;;;;5054594;28;20064;-53
2022/04/12 10:28:37;;;;;;;12.63;6.68;;;;;;;;;;5056382;28;20369;-54
2022/04/12 10:31:19;;;;;;;3.95;2.22;;;;;;;;;;5055932;28;20025;-40
2022/04/12 10:34:08;;;;;;;5.05;2.92;;;;;;;;;;5054743;28;20128;-37
2022/04/12 10:36:53;;;;;;;4.25;2.33;;;;;;;;;;5055862;28;20374;-42
2022/04/12 10:39:21;;;;;;;2.85;1.95;;;;;;;;;;5055886;28;20024;-43
2022/04/12 10:41:49;;;;;;;3.25;1.90;;;;;;;;;;5055836;28;20020;-41
2022/04/12 10:44:21;;;;;;;5.93;3.35;;;;;;;;;;5055983;28;20022;-41
2022/04/12 10:46:51;;;;;;;3.22;2.00;;;;;;;;;;5055831;28;20166;-48
2022/04/12 10:49:21;;;;;;;5.32;2.75;;;;;;;;;;5055575;28;20512;-43
2022/04/12 10:51:55;;;;;;;6.03;3.08;;;;;;;;;;5055618;28;20505;-41
2022/04/12 10:54:34;;;;;;;3.13;2.50;;;;;;;;;;5055764;28;20411;-39
2022/04/12 10:57:19;;;;;;;4.40;1.83;;;;;;;;;;5055585;28;20409;-40
2022/04/12 10:59:54;;;;;;;4.90;2.15;;;;;;;;;;5055429;28;20036;-43
2022/04/12 11:02:20;;;;;;;4.78;2.38;;;;;;;;;;5055391;28;20029;-50
2022/04/12 11:04:47;;;;;;;5.35;2.85;;;;;;;;;;5054038;28;20115;-40
2022/04/12 11:07:32;;;;;;;4.45;2.50;;;;;;;;;;5055371;28;20036;-48
2022/04/12 11:10:15;;;;;;;3.40;2.05;;;;;;;;;;5055231;28;20036;-52
2022/04/12 11:12:42;;;;;;;5.82;2.33;;;;;;;;;;5055373;28;20032;-44
2022/04/12 11:15:21;;;;;;;4.38;3.03;;;;;;;;;;5055214;28;20029;-46
2022/04/12 11:17:47;;;;;;;3.60;1.98;;;;;;;;;;5055217;28;20040;-40
2022/04/12 11:20:23;;;;;;;6.13;2.10;;;;;;;;;;5055208;28;20100;-39
2022/04/12 11:23:01;;;;;;;3.47;2.05;;;;;;;;;;5055701;28;20449;-38
2022/04/12 11:25:29;;;;;;;3.63;2.17;;;;;;;;;;5055043;28;20360;-48
2022/04/12 11:27:56;;;;;;;4.57;2.55;;;;;;;;;;5054920;28;20051;-42
2022/04/12 11:30:26;;;;;;;6.45;3.40;;;;;;;;;;5054883;28;20033;-40
2022/04/12 11:32:58;;;;;;;11.25;5.22;;;;;;;;;;5055003;28;20096;-40
2022/04/12 11:35:28;;;;;;;10.48;5.40;;;;;;;;;;5055183;28;20519;-51
2022/04/12 11:37:54;;;;;;;6.43;3.22;;;;;;;;;;5054635;28;20033;-49
2022/04/12 11:40:20;;;;;;;7.63;2.42;;;;;;;;;;5054976;28;20025;-52
2022/04/12 11:42:46;;;;;;;3.53;2.13;;;;;;;;;;5054660;28;20025;-40
2022/04/12 11:45:12;;;;;;;4.43;2.92;;;;;;;;;;5053427;28;20044;-40
2022/04/12 11:47:44;;;;;;;3.50;1.92;;;;;;;;;;5054547;28;20052;-39
2022/04/12 11:50:12;;;;;;;;;;;;;;;;;;5055074;28;20115;-36
2022/04/12 11:52:38;;;;;;;3.35;2.13;;;;;;;;;;5054566;28;20292;-44
2022/04/12 11:55:05;;;;;;;6.07;3.05;;;;;;;;;;5054460;28;20025;-40
2022/04/12 11:57:36;;;;;;;9.45;4.70;;;;;;;;;;5054715;28;20029;-42
2022/04/12 12:00:04;;;;;;;16.02;7.70;;;;;;;;;;5054498;28;20108;-40
2022/04/12 12:02:33;;;;;;;8.85;5.13;;;;;;;;;;5054608;28;20033;-42
2022/04/12 12:05:10;;;;;;;5.32;2.17;;;;;;;;;;5054339;28;20035;-42
2022/04/12 12:07:36;;;;;;;5.13;2.22;;;;;;;;;;5054186;28;20396;-42
2022/04/12 12:10:09;;;;;;;6.00;2.42;;;;;;;;;;5054194;28;20025;-40
2022/04/12 12:12:38;;;;;;;6.93;2.72;;;;;;;;;;5054143;28;20033;-40
2022/04/12 12:15:16;;;;;;;4.28;2.80;;;;;;;;;;5053477;28;20500;-44
2022/04/12 12:17:45;;;;;;;4.13;2.30;;;;;;;;;;5033561;28;20077;-45
2022/04/12 12:20:14;;;;;;;5.00;2.92;;;;;;;;;;5039289;28;20063;-44
2022/04/12 12:22:42;;;;;;;8.13;3.58;;;;;;;;;;5053160;28;20360;-39
2022/04/12 12:25:08;;;;;;;3.45;2.15;;;;;;;;;;5054016;28;20036;-39
2022/04/12 12:27:36;;;;;;;4.68;2.20;;;;;;;;;;5053776;28;20028;-41
2022/04/12 12:30:09;;;;;;;5.13;2.85;;;;;;;;;;5053604;28;20048;-41
2022/04/12 12:32:37;;;;;;;19.42;10.95;;;;;;;;;;5053691;28;20060;-42
2022/04/12 12:35:04;;;;;;;8.30;5.70;;;;;;;;;;5053561;28;20107;-40
2022/04/12 12:37:30;;;;;;;12.45;5.55;;;;;;;;;;5053707;28;20029;-46
2022/04/12 12:39:56;;;;;;;6.93;4.15;;;;;;;;;;5053503;28;20556;-46
2022/04/12 12:42:22;;;;;;;14.27;7.75;;;;;;;;;;5053473;28;20029;-39
2022/04/12 12:44:49;;;;;;;12.07;5.30;;;;;;;;;;5053678;28;20066;-43
2022/04/12 12:47:15;;;;;;;4.40;2.20;;;;;;;;;;5053204;28;20384;-41
2022/04/12 12:49:44;;;;;;;4.38;2.35;;;;;;;;;;5052880;28;20031;-44
2022/04/12 12:52:13;;;;;;;22.02;12.27;;;;;;;;;;5053384;28;20028;-39
2022/04/12 12:54:40;;;;;;;6.07;4.00;;;;;;;;;;5052231;28;20036;-40
2022/04/12 12:57:09;;;;;;;42.20;23.95;;;;;;;;;;5052833;28;20036;-45
2022/04/12 12:59:37;;;;;;;9.98;4.93;;;;;;;;;;5053302;28;20030;-38
2022/04/12 13:02:10;;;;;;;9.13;4.03;;;;;;;;;;5052736;28;20036;-45
2022/04/12 13:04:38;;;;;;;9.65;5.07;;;;;;;;;;5050290;28;20377;-38
2022/04/12 13:07:08;;;;;;;23.60;12.00;;;;;;;;;;5052835;28;20056;-43
2022/04/12 13:09:40;;;;;;;21.55;11.82;;;;;;;;;;5052975;28;20511;-38
2022/04/12 13:12:07;;;;;;;9.93;5.95;;;;;;;;;;5046416;28;20029;-39
2022/04/12 13:14:33;;;;;;;8.95;6.03;;;;;;;;;;5022247;28;20508;-43
2022/04/12 13:16:59;;;;;;;7.88;3.75;;;;;;;;;;5020888;28;20043;-47
2022/04/12 13:19:29;;;;;;;7.30;4.32;;;;;;;;;;5020897;28;20041;-42
2022/04/12 13:21:56;;;;;;;6.55;2.28;;;;;;;;;;5020418;28;20324;-42
2022/04/12 13:24:23;;;;;;;16.05;7.68;;;;;;;;;;5020490;28;20497;-51
2022/04/12 13:26:50;;;;;;;4.70;2.95;;;;;;;;;;5020660;28;20063;-43
2022/04/12 13:29:16;;;;;;;8.18;5.38;;;;;;;;;;5020485;28;20030;-46
2022/04/12 13:31:43;;;;;;;9.60;5.75;;;;;;;;;;5020389;28;20029;-42
2022/04/12 13:34:09;;;;;;;8.18;5.10;;;;;;;;;;5020768;28;20044;-47
2022/04/12 13:36:35;;;;;;;8.18;5.47;;;;;;;;;;5021329;28;20038;-49
2022/04/12 13:39:03;;;;;;;7.57;3.95;;;;;;;;;;5021513;28;20028;-49
2022/04/12 13:41:30;;;;;;;7.00;4.40;;;;;;;;;;5021680;28;20030;-43
2022/04/12 13:43:56;;;;;;;8.18;4.43;;;;;;;;;;5020475;28;20490;-40
2022/04/12 13:46:22;;;;;;;10.95;3.63;;;;;;;;;;5020401;28;20558;-46
2022/04/12 13:48:48;;;;;;;12.25;6.43;;;;;;;;;;5020431;28;20046;-49
2022/04/12 13:51:14;;;;;;;9.77;5.38;;;;;;;;;;5020407;28;20171;-46
2022/04/12 13:53:41;;;;;;;9.02;4.97;;;;;;;;;;5020373;28;20152;-48
2022/04/12 13:56:07;;;;;;;13.55;6.72;;;;;;;;;;5020482;28;20642;-45
2022/04/12 13:58:33;;;;;;;16.20;8.48;;;;;;;;;;5020327;28;20308;-46
2022/04/12 14:01:00;;;;;;;73.22;38.08;;;;;;;;;;5024856;28;20036;-44
2022/04/12 14:03:27;;;;;;;23.48;13.15;;;;;;;;;;5040159;28;20029;-44
2022/04/12 14:05:54;;;;;;;15.55;8.80;;;;;;;;;;5024364;28;20342;-47
2022/04/12 14:08:20;;;;;;;9.88;6.18;;;;;;;;;;5024175;28;20123;-48
2022/04/12 14:10:46;;;;;;;16.30;9.80;;;;;;;;;;5026698;28;20028;-51
2022/04/12 14:13:12;;;;;;;5.88;2.88;;;;;;;;;;5076692;28;20528;-50
2022/04/12 14:15:40;;;;;;;8.43;4.93;;;;;;;;;;5076456;28;20028;-49
2022/04/12 14:18:07;;;;;;;20.23;9.70;;;;;;;;;;5076496;28;20047;-43
2022/04/12 14:20:33;;;;;;;10.50;6.00;;;;;;;;;;5076529;28;20020;-48
2022/04/12 14:22:59;;;;;;;9.75;4.63;;;;;;;;;;5076181;28;20035;-42
2022/04/12 14:25:25;;;;;;;15.43;7.93;;;;;;;;;;5072880;28;20108;-47
2022/04/12 14:27:51;;;;;;;13.10;7.20;;;;;;;;;;5055735;28;20053;-47
2022/04/12 14:30:17;;;;;;;5.78;3.20;;;;;;;;;;5055556;28;20021;-45
2022/04/12 14:32:43;;;;;;;8.85;4.22;;;;;;;;;;5055545;28;20107;-50
2022/04/12 14:35:11;;;;;;;6.03;3.30;;;;;;;;;;5055599;28;20059;-49